Airfield :
LOGIN :

Register | Disclaimer

   EN    FR    IT 

 










Legend :    VFR   Marginal VFR   IFR   Intensive IFR   Very Intensive IFR
Visi :
Ceiling :
>= 8 km
>= 3000ft
5 to 8 km
1000 to 3000 ft
1500m to 5 km
500 to 1000 ft
800 to 1500m
200 to 500 ft
< 800m
< 200 ft
Symbols :   Thunderstorms  Fog  Heavy snow  Heavy precipitations  Wind > 20 kt
SIGMETs :     Misc.  Thunderstorms  Icing  Turbulence  Mountain Waves  Volcanic Ashes






- Airport Elevation : 93 ft
- IATA code : XRY


LEJR - Jerez

CURRENT METAR :
  • 181130Z 24008KT 210V280 9999 SCT010 BKN022 21/17 Q1014

EXPIRED METARs :
  • 181100Z 22007KT 9999 SCT010 BKN038 20/18 Q1014
  • 181030Z 23006KT 200V280 9999 -RA FEW010 BKN034 BKN044 20/18 Q1014 RERA
  • 181014Z 21007KT 180V250 9999 -RA FEW010 BKN028 BKN038 20/19 Q1014 RERA
  • 181000Z 19009KT 160V230 2000 RA FEW010 BKN028 BKN038 19/18 Q1014
  • 180930Z 19004KT 150V260 9999 FEW010 BKN028 BKN038 18/18 Q1014 RERA
  • 180915Z 23004KT 200V270 4000 RA FEW010 BKN025 BKN035 18/18 Q1014
  • 180900Z 21006KT 170V240 1000 R20/P2000 +RA SCT010 BKN025 BKN035 18/18 Q1014
  • 180837Z 21007KT 1000 R20/P2000 +RA SCT010 BKN025 BKN035 18/17 Q1014

TAF TAF LEJR
Valid from the 18 at 09:00 until the 19 at 09:00 UTC


180800Z 1809/1909 23008KT 9999 SCT030 TX24/1815Z TN14/1905Z
TEMPO 1809/1811 4000 SHRA FEW020TCU BKN025
PROB30
TEMPO 1810/1818 23015G25KT



MET'MAP, your aeronautical weather chart ! - Copyright ORBIFLY December 2007 - Disclaimer

ORBIFLY MET'MAP TEAM :

Programming & Development : Alexandra Zaïnal
Concept & original design : Baudouin d'Aumeries
Assistance for programming : Marc-Olivier Méhu
Technical & hardware support : Manuel Goepfert

Contact : metmap@orbifly.com




SOURCES & CREDITS :

   NOAA